sensor_id;sensor_type;location;lat;lon;timestamp;P1;durP1;ratioP1;P2;durP2;ratioP2
22176;SDS011;11254;50.098;8.726;2023-03-01T00:02:03;17.80;;;7.18;;
22176;SDS011;11254;50.098;8.726;2023-03-01T00:04:31;13.77;;;7.50;;
22176;SDS011;11254;50.098;8.726;2023-03-01T00:07:02;18.88;;;7.78;;
22176;SDS011;11254;50.098;8.726;2023-03-01T00:09:30;18.45;;;7.97;;
22176;SDS011;11254;50.098;8.726;2023-03-01T00:11:58;16.73;;;7.32;;
22176;SDS011;11254;50.098;8.726;2023-03-01T00:14:28;17.65;;;7.65;;
22176;SDS011;11254;50.098;8.726;2023-03-01T00:16:56;17.27;;;7.80;;
22176;SDS011;11254;50.098;8.726;2023-03-01T00:19:25;18.98;;;7.65;;
22176;SDS011;11254;50.098;8.726;2023-03-01T00:21:53;17.73;;;8.13;;
22176;SDS011;11254;50.098;8.726;2023-03-01T00:24:23;17.45;;;7.22;;
22176;SDS011;11254;50.098;8.726;2023-03-01T00:26:52;18.65;;;7.88;;
22176;SDS011;11254;50.098;8.726;2023-03-01T00:29:22;16.38;;;7.63;;
22176;SDS011;11254;50.098;8.726;2023-03-01T00:31:52;16.42;;;8.13;;
22176;SDS011;11254;50.098;8.726;2023-03-01T00:34:20;18.52;;;7.50;;
22176;SDS011;11254;50.098;8.726;2023-03-01T00:36:49;16.02;;;7.97;;
22176;SDS011;11254;50.098;8.726;2023-03-01T00:39:17;18.95;;;8.13;;
22176;SDS011;11254;50.098;8.726;2023-03-01T00:41:45;17.25;;;7.97;;
22176;SDS011;11254;50.098;8.726;2023-03-01T00:44:14;16.95;;;8.00;;
22176;SDS011;11254;50.098;8.726;2023-03-01T00:46:42;19.55;;;8.30;;
22176;SDS011;11254;50.098;8.726;2023-03-01T00:49:12;18.33;;;7.70;;
22176;SDS011;11254;50.098;8.726;2023-03-01T00:51:40;19.05;;;7.55;;
22176;SDS011;11254;50.098;8.726;2023-03-01T00:54:09;15.75;;;7.63;;
22176;SDS011;11254;50.098;8.726;2023-03-01T00:56:37;18.63;;;7.70;;
22176;SDS011;11254;50.098;8.726;2023-03-01T00:59:06;13.73;;;7.18;;
22176;SDS011;11254;50.098;8.726;2023-03-01T01:01:34;18.80;;;8.35;;
22176;SDS011;11254;50.098;8.726;2023-03-01T01:04:03;17.80;;;7.75;;
22176;SDS011;11254;50.098;8.726;2023-03-01T01:06:34;18.55;;;8.27;;
22176;SDS011;11254;50.098;8.726;2023-03-01T01:09:03;18.92;;;8.43;;
22176;SDS011;11254;50.098;8.726;2023-03-01T01:11:31;17.17;;;7.80;;
22176;SDS011;11254;50.098;8.726;2023-03-01T01:14:01;22.95;;;8.40;;
22176;SDS011;11254;50.098;8.726;2023-03-01T01:16:30;19.67;;;7.57;;
22176;SDS011;11254;50.098;8.726;2023-03-01T01:18:58;18.90;;;7.97;;
22176;SDS011;11254;50.098;8.726;2023-03-01T01:21:27;17.17;;;7.60;;
22176;SDS011;11254;50.098;8.726;2023-03-01T01:23:57;16.67;;;7.78;;
22176;SDS011;11254;50.098;8.726;2023-03-01T01:26:26;16.70;;;7.80;;
22176;SDS011;11254;50.098;8.726;2023-03-01T01:28:55;17.98;;;8.23;;
22176;SDS011;11254;50.098;8.726;2023-03-01T01:31:24;16.58;;;7.72;;
22176;SDS011;11254;50.098;8.726;2023-03-01T01:33:53;15.65;;;7.18;;
22176;SDS011;11254;50.098;8.726;2023-03-01T01:36:22;15.85;;;7.88;;
22176;SDS011;11254;50.098;8.726;2023-03-01T01:38:50;16.70;;;8.50;;
22176;SDS011;11254;50.098;8.726;2023-03-01T01:41:20;15.30;;;7.53;;
22176;SDS011;11254;50.098;8.726;2023-03-01T01:43:49;16.90;;;7.93;;
22176;SDS011;11254;50.098;8.726;2023-03-01T01:46:37;23.13;;;8.32;;
22176;SDS011;11254;50.098;8.726;2023-03-01T01:49:07;20.70;;;8.82;;
22176;SDS011;11254;50.098;8.726;2023-03-01T01:51:39;18.92;;;8.10;;
22176;SDS011;11254;50.098;8.726;2023-03-01T01:54:09;20.02;;;8.30;;
22176;SDS011;11254;50.098;8.726;2023-03-01T01:56:39;20.45;;;8.55;;
22176;SDS011;11254;50.098;8.726;2023-03-01T01:59:08;18.35;;;8.50;;
22176;SDS011;11254;50.098;8.726;2023-03-01T02:01:37;17.50;;;8.63;;
22176;SDS011;11254;50.098;8.726;2023-03-01T02:04:05;18.25;;;8.45;;
22176;SDS011;11254;50.098;8.726;2023-03-01T02:06:35;18.85;;;8.07;;
22176;SDS011;11254;50.098;8.726;2023-03-01T02:09:07;20.17;;;8.73;;
22176;SDS011;11254;50.098;8.726;2023-03-01T02:11:35;20.42;;;9.00;;
22176;SDS011;11254;50.098;8.726;2023-03-01T02:14:05;15.85;;;8.52;;
22176;SDS011;11254;50.098;8.726;2023-03-01T02:16:34;16.98;;;7.97;;
22176;SDS011;11254;50.098;8.726;2023-03-01T02:19:03;20.90;;;8.35;;
22176;SDS011;11254;50.098;8.726;2023-03-01T02:21:37;16.25;;;7.80;;
22176;SDS011;11254;50.098;8.726;2023-03-01T02:24:08;19.25;;;8.52;;
22176;SDS011;11254;50.098;8.726;2023-03-01T02:26:40;17.70;;;7.90;;
22176;SDS011;11254;50.098;8.726;2023-03-01T02:29:11;15.82;;;7.55;;
22176;SDS011;11254;50.098;8.726;2023-03-01T02:31:40;16.95;;;8.60;;
22176;SDS011;11254;50.098;8.726;2023-03-01T02:34:12;17.92;;;8.18;;
22176;SDS011;11254;50.098;8.726;2023-03-01T02:36:40;19.95;;;8.30;;
22176;SDS011;11254;50.098;8.726;2023-03-01T02:39:12;22.20;;;8.43;;
22176;SDS011;11254;50.098;8.726;2023-03-01T02:41:45;20.52;;;8.18;;
22176;SDS011;11254;50.098;8.726;2023-03-01T02:44:16;20.48;;;8.50;;
22176;SDS011;11254;50.098;8.726;2023-03-01T02:46:46;18.73;;;8.88;;
22176;SDS011;11254;50.098;8.726;2023-03-01T02:49:19;20.00;;;8.68;;
22176;SDS011;11254;50.098;8.726;2023-03-01T02:51:51;19.23;;;9.05;;
22176;SDS011;11254;50.098;8.726;2023-03-01T02:54:21;18.25;;;8.77;;
22176;SDS011;11254;50.098;8.726;2023-03-01T02:56:52;20.17;;;9.02;;
22176;SDS011;11254;50.098;8.726;2023-03-01T02:59:23;18.50;;;8.73;;
22176;SDS011;11254;50.098;8.726;2023-03-01T03:01:52;18.80;;;8.27;;
22176;SDS011;11254;50.098;8.726;2023-03-01T03:04:21;18.05;;;9.30;;
22176;SDS011;11254;50.098;8.726;2023-03-01T03:06:50;22.10;;;9.20;;
22176;SDS011;11254;50.098;8.726;2023-03-01T03:09:18;20.80;;;9.05;;
22176;SDS011;11254;50.098;8.726;2023-03-01T03:11:47;19.83;;;9.20;;
22176;SDS011;11254;50.098;8.726;2023-03-01T03:14:16;21.08;;;8.98;;
22176;SDS011;11254;50.098;8.726;2023-03-01T03:16:48;17.55;;;8.93;;
22176;SDS011;11254;50.098;8.726;2023-03-01T03:19:18;19.25;;;8.70;;
22176;SDS011;11254;50.098;8.726;2023-03-01T03:21:46;17.17;;;8.55;;
22176;SDS011;11254;50.098;8.726;2023-03-01T03:24:15;21.67;;;8.23;;
22176;SDS011;11254;50.098;8.726;2023-03-01T03:26:44;21.92;;;9.10;;
22176;SDS011;11254;50.098;8.726;2023-03-01T03:29:12;20.20;;;9.18;;
22176;SDS011;11254;50.098;8.726;2023-03-01T03:31:41;20.83;;;9.02;;
22176;SDS011;11254;50.098;8.726;2023-03-01T03:34:10;21.33;;;9.50;;
22176;SDS011;11254;50.098;8.726;2023-03-01T03:36:44;22.23;;;9.00;;
22176;SDS011;11254;50.098;8.726;2023-03-01T03:39:12;18.77;;;8.32;;
22176;SDS011;11254;50.098;8.726;2023-03-01T03:41:40;18.15;;;8.57;;
22176;SDS011;11254;50.098;8.726;2023-03-01T03:44:09;21.92;;;9.20;;
22176;SDS011;11254;50.098;8.726;2023-03-01T03:46:37;18.17;;;8.52;;
22176;SDS011;11254;50.098;8.726;2023-03-01T03:49:05;21.88;;;10.27;;
22176;SDS011;11254;50.098;8.726;2023-03-01T03:51:35;21.63;;;9.55;;
22176;SDS011;11254;50.098;8.726;2023-03-01T03:54:03;18.73;;;9.02;;
22176;SDS011;11254;50.098;8.726;2023-03-01T03:56:31;21.38;;;9.32;;
22176;SDS011;11254;50.098;8.726;2023-03-01T03:59:01;20.80;;;9.65;;
22176;SDS011;11254;50.098;8.726;2023-03-01T04:01:29;23.50;;;9.52;;
22176;SDS011;11254;50.098;8.726;2023-03-01T04:03:57;19.00;;;9.80;;
22176;SDS011;11254;50.098;8.726;2023-03-01T04:06:30;20.20;;;9.88;;
22176;SDS011;11254;50.098;8.726;2023-03-01T04:09:00;21.50;;;8.45;;
22176;SDS011;11254;50.098;8.726;2023-03-01T04:11:29;20.00;;;8.57;;
22176;SDS011;11254;50.098;8.726;2023-03-01T04:13:58;18.52;;;9.32;;
22176;SDS011;11254;50.098;8.726;2023-03-01T04:16:26;23.98;;;9.45;;
22176;SDS011;11254;50.098;8.726;2023-03-01T04:18:55;22.52;;;9.30;;
22176;SDS011;11254;50.098;8.726;2023-03-01T04:21:25;24.55;;;9.68;;
22176;SDS011;11254;50.098;8.726;2023-03-01T04:23:54;21.42;;;9.45;;
22176;SDS011;11254;50.098;8.726;2023-03-01T04:26:24;18.63;;;9.50;;
22176;SDS011;11254;50.098;8.726;2023-03-01T04:28:53;24.98;;;9.88;;
22176;SDS011;11254;50.098;8.726;2023-03-01T04:31:21;21.98;;;9.68;;
22176;SDS011;11254;50.098;8.726;2023-03-01T04:33:50;19.83;;;9.10;;
22176;SDS011;11254;50.098;8.726;2023-03-01T04:36:19;21.55;;;9.50;;
22176;SDS011;11254;50.098;8.726;2023-03-01T04:38:48;20.35;;;8.32;;
22176;SDS011;11254;50.098;8.726;2023-03-01T04:41:18;21.50;;;9.32;;
22176;SDS011;11254;50.098;8.726;2023-03-01T04:43:48;22.60;;;9.90;;
22176;SDS011;11254;50.098;8.726;2023-03-01T04:46:18;22.98;;;9.07;;
22176;SDS011;11254;50.098;8.726;2023-03-01T04:48:46;21.88;;;9.55;;
22176;SDS011;11254;50.098;8.726;2023-03-01T04:51:15;20.95;;;9.48;;
22176;SDS011;11254;50.098;8.726;2023-03-01T04:53:44;25.40;;;9.57;;
22176;SDS011;11254;50.098;8.726;2023-03-01T04:56:12;17.15;;;8.75;;
22176;SDS011;11254;50.098;8.726;2023-03-01T04:58:41;22.10;;;10.20;;
22176;SDS011;11254;50.098;8.726;2023-03-01T05:01:12;20.58;;;9.73;;
22176;SDS011;11254;50.098;8.726;2023-03-01T05:03:42;19.20;;;9.30;;
22176;SDS011;11254;50.098;8.726;2023-03-01T05:06:11;22.17;;;10.32;;
22176;SDS011;11254;50.098;8.726;2023-03-01T05:08:40;21.40;;;9.18;;
22176;SDS011;11254;50.098;8.726;2023-03-01T05:11:08;19.20;;;8.70;;
22176;SDS011;11254;50.098;8.726;2023-03-01T05:13:37;20.60;;;9.40;;
22176;SDS011;11254;50.098;8.726;2023-03-01T05:16:07;21.27;;;9.50;;
22176;SDS011;11254;50.098;8.726;2023-03-01T05:18:39;18.15;;;9.52;;
22176;SDS011;11254;50.098;8.726;2023-03-01T05:21:08;25.77;;;9.75;;
22176;SDS011;11254;50.098;8.726;2023-03-01T05:23:37;21.80;;;9.77;;
22176;SDS011;11254;50.098;8.726;2023-03-01T05:26:06;21.80;;;9.65;;
22176;SDS011;11254;50.098;8.726;2023-03-01T05:28:51;27.70;;;9.95;;
22176;SDS011;11254;50.098;8.726;2023-03-01T05:31:22;26.90;;;9.55;;
22176;SDS011;11254;50.098;8.726;2023-03-01T05:33:52;22.52;;;9.95;;
22176;SDS011;11254;50.098;8.726;2023-03-01T05:36:21;24.67;;;10.18;;
22176;SDS011;11254;50.098;8.726;2023-03-01T05:38:49;26.08;;;10.38;;
22176;SDS011;11254;50.098;8.726;2023-03-01T05:41:18;22.95;;;9.57;;
22176;SDS011;11254;50.098;8.726;2023-03-01T05:43:46;26.70;;;9.80;;
22176;SDS011;11254;50.098;8.726;2023-03-01T05:46:14;20.95;;;9.43;;
22176;SDS011;11254;50.098;8.726;2023-03-01T05:48:43;21.10;;;9.45;;
22176;SDS011;11254;50.098;8.726;2023-03-01T05:51:12;22.25;;;9.73;;
22176;SDS011;11254;50.098;8.726;2023-03-01T05:53:41;23.15;;;9.05;;
22176;SDS011;11254;50.098;8.726;2023-03-01T05:56:09;26.80;;;9.70;;
22176;SDS011;11254;50.098;8.726;2023-03-01T05:58:38;23.05;;;9.07;;
22176;SDS011;11254;50.098;8.726;2023-03-01T06:01:10;25.08;;;10.27;;
22176;SDS011;11254;50.098;8.726;2023-03-01T06:03:39;25.13;;;9.82;;
22176;SDS011;11254;50.098;8.726;2023-03-01T06:06:07;21.17;;;10.02;;
22176;SDS011;11254;50.098;8.726;2023-03-01T06:08:37;25.95;;;9.38;;
22176;SDS011;11254;50.098;8.726;2023-03-01T06:11:05;20.27;;;8.95;;
22176;SDS011;11254;50.098;8.726;2023-03-01T06:13:34;24.27;;;10.75;;
22176;SDS011;11254;50.098;8.726;2023-03-01T06:16:09;20.15;;;9.23;;
22176;SDS011;11254;50.098;8.726;2023-03-01T06:18:40;22.58;;;9.55;;
22176;SDS011;11254;50.098;8.726;2023-03-01T06:21:09;24.00;;;10.57;;
22176;SDS011;11254;50.098;8.726;2023-03-01T06:23:41;21.88;;;10.50;;
22176;SDS011;11254;50.098;8.726;2023-03-01T06:26:10;22.20;;;10.20;;
22176;SDS011;11254;50.098;8.726;2023-03-01T06:28:38;21.85;;;10.30;;
22176;SDS011;11254;50.098;8.726;2023-03-01T06:31:06;20.67;;;8.70;;
22176;SDS011;11254;50.098;8.726;2023-03-01T06:33:35;22.98;;;10.40;;
22176;SDS011;11254;50.098;8.726;2023-03-01T06:36:04;25.23;;;9.80;;
22176;SDS011;11254;50.098;8.726;2023-03-01T06:38:33;23.60;;;9.90;;
22176;SDS011;11254;50.098;8.726;2023-03-01T06:41:03;23.95;;;9.77;;
22176;SDS011;11254;50.098;8.726;2023-03-01T06:43:32;24.02;;;9.55;;
22176;SDS011;11254;50.098;8.726;2023-03-01T06:46:03;17.20;;;8.35;;
22176;SDS011;11254;50.098;8.726;2023-03-01T06:48:31;21.10;;;9.27;;
22176;SDS011;11254;50.098;8.726;2023-03-01T06:51:00;21.20;;;9.68;;
22176;SDS011;11254;50.098;8.726;2023-03-01T06:53:29;20.23;;;8.85;;
22176;SDS011;11254;50.098;8.726;2023-03-01T06:55:57;20.60;;;10.23;;
22176;SDS011;11254;50.098;8.726;2023-03-01T06:58:28;27.15;;;9.82;;
22176;SDS011;11254;50.098;8.726;2023-03-01T07:00:56;22.23;;;9.57;;
22176;SDS011;11254;50.098;8.726;2023-03-01T07:03:24;26.35;;;9.85;;
22176;SDS011;11254;50.098;8.726;2023-03-01T07:05:53;22.70;;;9.65;;
22176;SDS011;11254;50.098;8.726;2023-03-01T07:08:21;24.33;;;9.38;;
22176;SDS011;11254;50.098;8.726;2023-03-01T07:10:54;21.88;;;9.60;;
22176;SDS011;11254;50.098;8.726;2023-03-01T07:13:22;20.90;;;9.43;;
22176;SDS011;11254;50.098;8.726;2023-03-01T07:15:52;32.55;;;10.52;;
22176;SDS011;11254;50.098;8.726;2023-03-01T07:18:21;20.52;;;9.70;;
22176;SDS011;11254;50.098;8.726;2023-03-01T07:20:49;21.27;;;9.57;;
22176;SDS011;11254;50.098;8.726;2023-03-01T07:23:18;19.25;;;8.52;;
22176;SDS011;11254;50.098;8.726;2023-03-01T07:25:50;22.20;;;8.73;;
22176;SDS011;11254;50.098;8.726;2023-03-01T07:28:19;18.73;;;8.95;;
22176;SDS011;11254;50.098;8.726;2023-03-01T07:30:47;23.52;;;10.05;;
22176;SDS011;11254;50.098;8.726;2023-03-01T07:33:17;21.45;;;9.68;;
22176;SDS011;11254;50.098;8.726;2023-03-01T07:35:46;20.92;;;9.80;;
22176;SDS011;11254;50.098;8.726;2023-03-01T07:38:14;20.17;;;9.82;;
22176;SDS011;11254;50.098;8.726;2023-03-01T07:40:43;25.90;;;10.70;;
22176;SDS011;11254;50.098;8.726;2023-03-01T07:43:11;26.00;;;10.35;;
22176;SDS011;11254;50.098;8.726;2023-03-01T07:45:40;19.60;;;9.82;;
22176;SDS011;11254;50.098;8.726;2023-03-01T07:48:08;26.80;;;10.82;;
22176;SDS011;11254;50.098;8.726;2023-03-01T07:50:38;25.50;;;10.63;;
22176;SDS011;11254;50.098;8.726;2023-03-01T07:53:06;24.02;;;9.82;;
22176;SDS011;11254;50.098;8.726;2023-03-01T07:55:35;24.27;;;10.43;;
22176;SDS011;11254;50.098;8.726;2023-03-01T07:58:04;23.33;;;10.75;;
22176;SDS011;11254;50.098;8.726;2023-03-01T08:00:39;19.90;;;9.15;;
22176;SDS011;11254;50.098;8.726;2023-03-01T08:03:10;20.45;;;9.13;;
22176;SDS011;11254;50.098;8.726;2023-03-01T08:05:39;20.48;;;9.13;;
22176;SDS011;11254;50.098;8.726;2023-03-01T08:08:09;25.23;;;10.38;;
22176;SDS011;11254;50.098;8.726;2023-03-01T08:10:38;23.63;;;10.93;;
22176;SDS011;11254;50.098;8.726;2023-03-01T08:13:06;23.02;;;10.45;;
22176;SDS011;11254;50.098;8.726;2023-03-01T08:15:34;24.23;;;10.05;;
22176;SDS011;11254;50.098;8.726;2023-03-01T08:18:03;23.00;;;10.25;;
22176;SDS011;11254;50.098;8.726;2023-03-01T08:20:32;21.38;;;9.85;;
22176;SDS011;11254;50.098;8.726;2023-03-01T08:23:02;24.58;;;10.13;;
22176;SDS011;11254;50.098;8.726;2023-03-01T08:25:31;23.20;;;10.52;;
22176;SDS011;11254;50.098;8.726;2023-03-01T08:27:59;24.73;;;10.05;;
22176;SDS011;11254;50.098;8.726;2023-03-01T08:30:27;28.15;;;10.18;;
22176;SDS011;11254;50.098;8.726;2023-03-01T08:32:56;25.25;;;10.50;;
22176;SDS011;11254;50.098;8.726;2023-03-01T08:35:24;21.83;;;10.10;;
22176;SDS011;11254;50.098;8.726;2023-03-01T08:37:53;18.73;;;9.60;;
22176;SDS011;11254;50.098;8.726;2023-03-01T08:40:23;20.75;;;10.63;;
22176;SDS011;11254;50.098;8.726;2023-03-01T08:42:51;20.20;;;10.27;;
22176;SDS011;11254;50.098;8.726;2023-03-01T08:45:19;20.70;;;10.50;;
22176;SDS011;11254;50.098;8.726;2023-03-01T08:47:51;28.20;;;11.13;;
22176;SDS011;11254;50.098;8.726;2023-03-01T08:50:19;28.02;;;10.63;;
22176;SDS011;11254;50.098;8.726;2023-03-01T08:52:50;21.70;;;10.40;;
22176;SDS011;11254;50.098;8.726;2023-03-01T08:55:18;20.77;;;10.20;;
22176;SDS011;11254;50.098;8.726;2023-03-01T08:57:48;20.90;;;10.65;;
22176;SDS011;11254;50.098;8.726;2023-03-01T09:00:17;19.02;;;10.75;;
22176;SDS011;11254;50.098;8.726;2023-03-01T09:02:46;21.15;;;11.40;;
22176;SDS011;11254;50.098;8.726;2023-03-01T09:05:14;21.23;;;10.88;;
22176;SDS011;11254;50.098;8.726;2023-03-01T09:07:45;20.50;;;11.00;;
22176;SDS011;11254;50.098;8.726;2023-03-01T09:10:16;23.55;;;11.32;;
22176;SDS011;11254;50.098;8.726;2023-03-01T09:12:44;20.52;;;11.45;;
22176;SDS011;11254;50.098;8.726;2023-03-01T09:15:14;20.63;;;11.00;;
22176;SDS011;11254;50.098;8.726;2023-03-01T09:17:43;21.00;;;11.00;;
22176;SDS011;11254;50.098;8.726;2023-03-01T09:20:11;21.48;;;10.90;;
22176;SDS011;11254;50.098;8.726;2023-03-01T09:22:40;21.88;;;12.60;;
22176;SDS011;11254;50.098;8.726;2023-03-01T09:25:08;23.85;;;12.05;;
22176;SDS011;11254;50.098;8.726;2023-03-01T09:27:36;21.55;;;12.20;;
22176;SDS011;11254;50.098;8.726;2023-03-01T09:30:05;21.40;;;11.90;;
22176;SDS011;11254;50.098;8.726;2023-03-01T09:32:35;23.63;;;13.07;;
22176;SDS011;11254;50.098;8.726;2023-03-01T09:35:08;20.13;;;11.38;;
22176;SDS011;11254;50.098;8.726;2023-03-01T09:37:37;20.90;;;12.48;;
22176;SDS011;11254;50.098;8.726;2023-03-01T09:40:11;21.33;;;11.85;;
22176;SDS011;11254;50.098;8.726;2023-03-01T09:42:51;23.15;;;12.85;;
22176;SDS011;11254;50.098;8.726;2023-03-01T09:45:25;23.52;;;12.00;;
22176;SDS011;11254;50.098;8.726;2023-03-01T09:47:57;24.35;;;11.98;;
22176;SDS011;11254;50.098;8.726;2023-03-01T09:50:26;20.45;;;11.98;;
22176;SDS011;11254;50.098;8.726;2023-03-01T09:52:59;21.42;;;12.80;;
22176;SDS011;11254;50.098;8.726;2023-03-01T09:55:30;23.70;;;12.70;;
22176;SDS011;11254;50.098;8.726;2023-03-01T09:58:00;20.13;;;11.75;;
22176;SDS011;11254;50.098;8.726;2023-03-01T10:00:34;21.85;;;12.10;;
22176;SDS011;11254;50.098;8.726;2023-03-01T10:03:09;22.25;;;12.65;;
22176;SDS011;11254;50.098;8.726;2023-03-01T10:05:41;24.08;;;13.32;;
22176;SDS011;11254;50.098;8.726;2023-03-01T10:08:24;23.10;;;12.85;;
22176;SDS011;11254;50.098;8.726;2023-03-01T10:10:55;23.63;;;12.70;;
22176;SDS011;11254;50.098;8.726;2023-03-01T10:13:25;20.23;;;11.35;;
22176;SDS011;11254;50.098;8.726;2023-03-01T10:15:55;22.75;;;12.77;;
22176;SDS011;11254;50.098;8.726;2023-03-01T10:18:26;21.00;;;11.65;;
22176;SDS011;11254;50.098;8.726;2023-03-01T10:20:56;24.40;;;12.75;;
22176;SDS011;11254;50.098;8.726;2023-03-01T10:23:26;20.83;;;12.18;;
22176;SDS011;11254;50.098;8.726;2023-03-01T10:26:05;22.38;;;12.73;;
22176;SDS011;11254;50.098;8.726;2023-03-01T10:28:37;21.52;;;12.02;;
22176;SDS011;11254;50.098;8.726;2023-03-01T10:31:08;22.02;;;11.82;;
22176;SDS011;11254;50.098;8.726;2023-03-01T10:33:41;20.75;;;11.43;;
22176;SDS011;11254;50.098;8.726;2023-03-01T10:36:09;21.85;;;11.95;;
22176;SDS011;11254;50.098;8.726;2023-03-01T10:38:48;21.65;;;12.75;;
22176;SDS011;11254;50.098;8.726;2023-03-01T10:41:18;19.48;;;11.82;;
22176;SDS011;11254;50.098;8.726;2023-03-01T10:43:48;20.80;;;12.38;;
22176;SDS011;11254;50.098;8.726;2023-03-01T10:46:22;22.83;;;12.15;;
22176;SDS011;11254;50.098;8.726;2023-03-01T10:51:38;22.75;;;11.70;;
22176;SDS011;11254;50.098;8.726;2023-03-01T10:54:15;26.52;;;12.45;;
22176;SDS011;11254;50.098;8.726;2023-03-01T10:56:47;22.75;;;11.50;;
22176;SDS011;11254;50.098;8.726;2023-03-01T10:59:22;24.00;;;12.13;;
22176;SDS011;11254;50.098;8.726;2023-03-01T11:02:01;24.00;;;11.23;;
22176;SDS011;11254;50.098;8.726;2023-03-01T11:04:42;23.05;;;12.20;;
22176;SDS011;11254;50.098;8.726;2023-03-01T11:07:25;20.88;;;11.00;;
22176;SDS011;11254;50.098;8.726;2023-03-01T11:09:54;25.08;;;11.23;;
22176;SDS011;11254;50.098;8.726;2023-03-01T11:12:23;23.00;;;11.18;;
22176;SDS011;11254;50.098;8.726;2023-03-01T11:14:53;22.27;;;11.13;;
22176;SDS011;11254;50.098;8.726;2023-03-01T11:17:23;19.73;;;10.35;;
22176;SDS011;11254;50.098;8.726;2023-03-01T11:20:04;21.02;;;9.93;;
22176;SDS011;11254;50.098;8.726;2023-03-01T17:22:50;16.70;;;8.30;;
22176;SDS011;11254;50.098;8.726;2023-03-01T17:25:22;15.57;;;8.18;;
22176;SDS011;11254;50.098;8.726;2023-03-01T17:27:50;20.38;;;8.52;;
22176;SDS011;11254;50.098;8.726;2023-03-01T17:30:19;19.42;;;8.63;;
22176;SDS011;11254;50.098;8.726;2023-03-01T17:32:47;16.90;;;8.00;;
22176;SDS011;11254;50.098;8.726;2023-03-01T17:35:16;18.00;;;8.20;;
22176;SDS011;11254;50.098;8.726;2023-03-01T17:37:44;19.83;;;9.00;;
22176;SDS011;11254;50.098;8.726;2023-03-01T17:40:14;20.00;;;8.85;;
22176;SDS011;11254;50.098;8.726;2023-03-01T17:42:42;17.88;;;8.15;;
22176;SDS011;11254;50.098;8.726;2023-03-01T17:45:11;20.90;;;8.23;;
22176;SDS011;11254;50.098;8.726;2023-03-01T17:47:40;18.15;;;8.27;;
22176;SDS011;11254;50.098;8.726;2023-03-01T17:50:09;17.73;;;9.00;;
22176;SDS011;11254;50.098;8.726;2023-03-01T17:52:38;17.23;;;8.30;;
22176;SDS011;11254;50.098;8.726;2023-03-01T17:55:09;18.33;;;8.65;;
22176;SDS011;11254;50.098;8.726;2023-03-01T17:57:39;18.23;;;8.60;;
22176;SDS011;11254;50.098;8.726;2023-03-01T18:00:09;21.60;;;8.73;;
22176;SDS011;11254;50.098;8.726;2023-03-01T18:02:39;16.85;;;8.48;;
22176;SDS011;11254;50.098;8.726;2023-03-01T18:05:09;17.85;;;8.60;;
22176;SDS011;11254;50.098;8.726;2023-03-01T18:07:38;16.33;;;8.48;;
22176;SDS011;11254;50.098;8.726;2023-03-01T18:10:06;17.90;;;7.90;;
22176;SDS011;11254;50.098;8.726;2023-03-01T18:12:35;21.05;;;8.32;;
22176;SDS011;11254;50.098;8.726;2023-03-01T18:15:06;18.58;;;8.43;;
22176;SDS011;11254;50.098;8.726;2023-03-01T18:17:34;17.05;;;8.00;;
22176;SDS011;11254;50.098;8.726;2023-03-01T18:20:03;19.33;;;8.52;;
22176;SDS011;11254;50.098;8.726;2023-03-01T18:22:32;18.25;;;7.65;;
22176;SDS011;11254;50.098;8.726;2023-03-01T18:25:00;16.83;;;7.97;;
22176;SDS011;11254;50.098;8.726;2023-03-01T18:27:30;19.33;;;8.95;;
22176;SDS011;11254;50.098;8.726;2023-03-01T18:29:59;18.20;;;8.50;;
22176;SDS011;11254;50.098;8.726;2023-03-01T18:32:29;18.90;;;8.60;;
22176;SDS011;11254;50.098;8.726;2023-03-01T18:34:59;17.58;;;7.85;;
22176;SDS011;11254;50.098;8.726;2023-03-01T18:37:27;17.20;;;8.75;;
22176;SDS011;11254;50.098;8.726;2023-03-01T18:39:56;17.15;;;8.32;;
22176;SDS011;11254;50.098;8.726;2023-03-01T18:42:27;17.52;;;8.52;;
22176;SDS011;11254;50.098;8.726;2023-03-01T18:44:56;16.42;;;7.43;;
22176;SDS011;11254;50.098;8.726;2023-03-01T18:47:24;20.92;;;8.30;;
22176;SDS011;11254;50.098;8.726;2023-03-01T18:49:54;17.80;;;8.65;;
22176;SDS011;11254;50.098;8.726;2023-03-01T18:52:22;22.65;;;8.38;;
22176;SDS011;11254;50.098;8.726;2023-03-01T18:54:50;19.00;;;7.95;;
22176;SDS011;11254;50.098;8.726;2023-03-01T18:57:19;16.42;;;8.15;;
22176;SDS011;11254;50.098;8.726;2023-03-01T18:59:48;17.60;;;8.13;;
22176;SDS011;11254;50.098;8.726;2023-03-01T19:02:16;18.48;;;7.60;;
22176;SDS011;11254;50.098;8.726;2023-03-01T19:04:44;20.15;;;9.07;;
22176;SDS011;11254;50.098;8.726;2023-03-01T19:07:14;18.08;;;8.68;;
22176;SDS011;11254;50.098;8.726;2023-03-01T19:09:43;34.67;;;14.20;;
22176;SDS011;11254;50.098;8.726;2023-03-01T19:12:11;41.38;;;16.85;;
22176;SDS011;11254;50.098;8.726;2023-03-01T19:14:40;21.60;;;9.05;;
22176;SDS011;11254;50.098;8.726;2023-03-01T19:17:08;22.63;;;8.63;;
22176;SDS011;11254;50.098;8.726;2023-03-01T19:19:37;19.27;;;8.00;;
22176;SDS011;11254;50.098;8.726;2023-03-01T19:22:06;18.48;;;7.70;;
22176;SDS011;11254;50.098;8.726;2023-03-01T19:24:38;16.48;;;8.20;;
22176;SDS011;11254;50.098;8.726;2023-03-01T19:27:06;17.92;;;7.85;;
22176;SDS011;11254;50.098;8.726;2023-03-01T19:29:35;17.05;;;8.18;;
22176;SDS011;11254;50.098;8.726;2023-03-01T19:32:06;19.17;;;8.98;;
22176;SDS011;11254;50.098;8.726;2023-03-01T19:34:34;18.88;;;9.05;;
22176;SDS011;11254;50.098;8.726;2023-03-01T19:37:05;19.98;;;8.23;;
22176;SDS011;11254;50.098;8.726;2023-03-01T19:39:35;21.92;;;8.05;;
22176;SDS011;11254;50.098;8.726;2023-03-01T19:42:04;20.23;;;8.40;;
22176;SDS011;11254;50.098;8.726;2023-03-01T19:44:33;20.83;;;8.50;;
22176;SDS011;11254;50.098;8.726;2023-03-01T19:47:01;19.85;;;8.25;;
22176;SDS011;11254;50.098;8.726;2023-03-01T19:49:30;21.40;;;8.40;;
22176;SDS011;11254;50.098;8.726;2023-03-01T19:51:58;19.02;;;7.97;;
22176;SDS011;11254;50.098;8.726;2023-03-01T19:54:29;17.95;;;7.85;;
22176;SDS011;11254;50.098;8.726;2023-03-01T19:56:57;19.65;;;8.25;;
22176;SDS011;11254;50.098;8.726;2023-03-01T19:59:27;35.03;;;16.65;;
22176;SDS011;11254;50.098;8.726;2023-03-01T20:01:56;22.48;;;9.60;;
22176;SDS011;11254;50.098;8.726;2023-03-01T20:04:24;19.88;;;8.57;;
22176;SDS011;11254;50.098;8.726;2023-03-01T20:06:52;23.02;;;8.18;;
22176;SDS011;11254;50.098;8.726;2023-03-01T20:09:21;17.30;;;8.02;;
22176;SDS011;11254;50.098;8.726;2023-03-01T20:11:49;17.95;;;8.23;;
22176;SDS011;11254;50.098;8.726;2023-03-01T20:14:17;20.17;;;8.07;;
22176;SDS011;11254;50.098;8.726;2023-03-01T20:16:51;16.33;;;7.70;;
22176;SDS011;11254;50.098;8.726;2023-03-01T20:19:19;19.88;;;9.27;;
22176;SDS011;11254;50.098;8.726;2023-03-01T20:21:48;21.98;;;8.52;;
22176;SDS011;11254;50.098;8.726;2023-03-01T20:24:16;17.95;;;8.35;;
22176;SDS011;11254;50.098;8.726;2023-03-01T20:26:44;18.17;;;8.82;;
22176;SDS011;11254;50.098;8.726;2023-03-01T20:29:13;18.73;;;8.65;;
22176;SDS011;11254;50.098;8.726;2023-03-01T20:31:41;20.10;;;9.40;;
22176;SDS011;11254;50.098;8.726;2023-03-01T20:34:11;20.85;;;8.50;;
22176;SDS011;11254;50.098;8.726;2023-03-01T20:36:39;19.92;;;9.23;;
22176;SDS011;11254;50.098;8.726;2023-03-01T20:39:09;24.35;;;10.18;;
22176;SDS011;11254;50.098;8.726;2023-03-01T20:41:38;22.30;;;9.30;;
22176;SDS011;11254;50.098;8.726;2023-03-01T20:44:06;19.48;;;9.23;;
22176;SDS011;11254;50.098;8.726;2023-03-01T20:46:35;21.55;;;9.90;;
22176;SDS011;11254;50.098;8.726;2023-03-01T20:49:04;22.98;;;10.38;;